Huvudsida
METAR-TAF:

METAR-TAF

Flygplatser :

St. Mary's, Alaska, USA

latitud: 62-03N, longitud: 163-18W, höjd: 95 m

Aktuellt väderrapport

Denna rapport gjordes för 23 minuter sedan, klockan 17:40 UTC
Vind 3 kt från nordost
Temperatur 9°C
Fuktighet 76%
Tryck 1027 hPa
Sikt: 16.1 km
Spridda moln på en höjd av 2800 ft

METAR: PASM 141740Z AUTO 05003KT 10SM SCT028 09/05 A3033 RMK AO2

Tid: 10:03 (18:03 UTC)


TAF: saknas

Aktuella väderrapporter och prognoser från 4000 flygplatser (METAR- och TAF-rapporter).

De tillgängliga stationerna syns som gula och röda prickar på kartan.

För musen över prickarna för att se namnen på stationerna.

Klicka sedan för att få väderrapporter och prognoser.

För att ändra kartan: Klicka på de gröna knapparna med ett svart kors på för att zooma in; den gröna knappen med ett streck på för att zooma ut; eller på de gröna pilarna för angränsande kartor.


METAR-TAF: